createdAt,value
2022-08-08T00:00:53.877Z,13.77
2022-08-08T00:02:55.355Z,13.71
2022-08-08T00:06:02.847Z,13.84
2022-08-08T00:08:51.549Z,13.84
2022-08-08T00:12:07.295Z,13.77
2022-08-08T00:14:57.046Z,13.76
2022-08-08T00:17:58.778Z,13.57
2022-08-08T00:20:42.581Z,13.51
2022-08-08T00:23:20.777Z,13.57
2022-08-08T00:25:56.557Z,13.58
2022-08-08T00:28:35.496Z,13.59
2022-08-08T00:32:21.039Z,13.60
2022-08-08T00:34:47.313Z,13.60
2022-08-08T00:37:45.348Z,13.47
2022-08-08T00:41:07.956Z,13.46
2022-08-08T00:43:45.934Z,13.44
2022-08-08T00:46:32.176Z,13.32
2022-08-08T00:50:09.178Z,13.37
2022-08-08T00:53:14.203Z,13.27
2022-08-08T00:56:22.520Z,13.22
2022-08-08T00:59:18.708Z,13.19
2022-08-08T01:03:57.501Z,13.13
2022-08-08T01:05:58.452Z,13.08
2022-08-08T01:08:53.725Z,13.03
2022-08-08T01:11:38.529Z,13.03
2022-08-08T01:14:57.243Z,13.01
2022-08-08T01:17:53.884Z,12.85
2022-08-08T01:20:51.325Z,12.64
2022-08-08T01:24:05.358Z,12.60
2022-08-08T01:27:06.995Z,12.66
2022-08-08T01:30:21.964Z,12.62
2022-08-08T01:33:27.959Z,12.57
2022-08-08T01:36:34.428Z,12.57
2022-08-08T01:39:23.709Z,12.55
2022-08-08T01:42:36.135Z,12.54
2022-08-08T01:45:39.041Z,12.56
2022-08-08T01:48:30.862Z,12.55
2022-08-08T01:52:04.495Z,12.37
2022-08-08T01:55:19.204Z,12.36
2022-08-08T01:58:12.111Z,12.33
2022-08-08T02:01:03.463Z,12.34
2022-08-08T02:04:01.804Z,12.32
2022-08-08T02:06:31.615Z,12.32
2022-08-08T02:09:15.960Z,12.33
2022-08-08T02:11:59.837Z,12.26
2022-08-08T02:14:55.548Z,12.24
2022-08-08T02:17:54.059Z,12.20
2022-08-08T02:21:13.335Z,12.16
2022-08-08T02:23:56.675Z,12.14
2022-08-08T02:26:36.125Z,12.13
2022-08-08T02:29:46.920Z,12.06
2022-08-08T02:32:32.377Z,11.82
2022-08-08T02:35:07.971Z,11.88
2022-08-08T02:37:57.096Z,11.87
2022-08-08T02:40:30.886Z,11.87
2022-08-08T02:44:34.926Z,11.93
2022-08-08T02:47:00.410Z,11.89
2022-08-08T02:49:51.077Z,11.76
2022-08-08T02:52:39.789Z,11.63
2022-08-08T02:55:10.489Z,11.67
2022-08-08T02:57:51.308Z,11.70
2022-08-08T03:00:31.713Z,11.70
2022-08-08T03:03:46.208Z,11.74
2022-08-08T03:06:34.755Z,11.79
2022-08-08T03:09:42.417Z,11.77
2022-08-08T03:12:36.680Z,11.73
2022-08-08T03:16:00.168Z,11.50
2022-08-08T03:18:52.810Z,11.55
2022-08-08T03:21:19.327Z,11.55
2022-08-08T03:23:59.283Z,11.55
2022-08-08T03:26:42.689Z,11.57
2022-08-08T03:29:20.797Z,11.55
2022-08-08T03:32:22.992Z,11.54
2022-08-08T03:34:56.624Z,11.37
2022-08-08T03:37:59.926Z,11.40
2022-08-08T03:40:28.922Z,11.44
2022-08-08T03:42:58.699Z,11.38
2022-08-08T03:46:05.321Z,11.34
2022-08-08T03:49:10.152Z,11.34
2022-08-08T03:51:16.923Z,11.36
2022-08-08T03:53:47.351Z,11.36
2022-08-08T03:56:31.504Z,11.33
2022-08-08T03:58:59.335Z,11.40
2022-08-08T04:02:12.616Z,11.37
2022-08-08T04:04:23.085Z,11.20
2022-08-08T04:07:01.284Z,11.19
2022-08-08T04:09:30.852Z,11.10
2022-08-08T04:12:15.918Z,11.24
2022-08-08T04:14:45.340Z,11.29
2022-08-08T04:17:22.836Z,11.30
2022-08-08T04:20:02.047Z,11.23
2022-08-08T04:22:32.119Z,11.15
2022-08-08T04:25:02.260Z,11.11
2022-08-08T04:28:03.381Z,10.98
2022-08-08T04:30:17.908Z,11.07
2022-08-08T04:32:47.918Z,11.20
2022-08-08T04:35:17.551Z,11.27
2022-08-08T04:37:47.039Z,11.29
2022-08-08T04:40:17.839Z,11.41
2022-08-08T04:42:55.846Z,11.46
2022-08-08T04:45:23.693Z,11.40
2022-08-08T04:47:53.363Z,11.50
2022-08-08T04:50:24.300Z,11.58
2022-08-08T04:53:01.218Z,11.64
2022-08-08T04:55:37.812Z,11.62
2022-08-08T04:58:17.592Z,11.63
2022-08-08T05:00:45.037Z,11.68
2022-08-08T05:03:18.942Z,11.75
2022-08-08T05:06:01.363Z,11.79
2022-08-08T05:08:40.390Z,11.81
2022-08-08T05:11:08.568Z,11.92
2022-08-08T05:13:36.947Z,11.96
2022-08-08T05:16:48.117Z,11.95
2022-08-08T05:20:04.226Z,11.83
2022-08-08T05:22:00.479Z,11.71
2022-08-08T05:24:27.614Z,11.88
2022-08-08T05:26:54.326Z,12.00
2022-08-08T05:29:20.996Z,12.09
2022-08-08T05:32:02.995Z,12.19
2022-08-08T05:34:47.216Z,12.07
2022-08-08T05:37:19.800Z,12.15
2022-08-08T05:39:52.853Z,12.39
2022-08-08T05:42:28.568Z,12.54
2022-08-08T05:45:00.870Z,12.46
2022-08-08T05:47:59.825Z,12.68
2022-08-08T05:50:30.081Z,12.73
2022-08-08T05:53:54.696Z,12.74
2022-08-08T05:56:11.418Z,12.96
2022-08-08T05:58:57.982Z,12.93
2022-08-08T06:01:57.397Z,13.13
2022-08-08T06:04:23.432Z,13.80
2022-08-08T06:07:00.491Z,16.51
2022-08-08T06:09:58.814Z,19.96
2022-08-08T06:12:29.952Z,21.94
2022-08-08T06:15:00.232Z,23.25
2022-08-08T06:17:51.520Z,23.93
2022-08-08T06:20:16.371Z,25.67
2022-08-08T06:22:46.264Z,25.27
2022-08-08T06:25:16.129Z,26.66
2022-08-08T06:27:48.299Z,26.95
2022-08-08T06:30:20.254Z,28.26
2022-08-08T06:32:57.525Z,27.41
2022-08-08T06:36:08.636Z,26.95
2022-08-08T06:38:18.736Z,27.06
2022-08-08T06:40:53.908Z,28.29
2022-08-08T06:43:28.515Z,29.24
2022-08-08T06:46:00.546Z,28.22
2022-08-08T06:48:27.366Z,29.00
2022-08-08T06:50:55.616Z,28.98
2022-08-08T06:53:22.890Z,28.67
2022-08-08T06:56:00.483Z,30.82
2022-08-08T06:58:30.560Z,31.49
2022-08-08T07:01:01.645Z,29.32
2022-08-08T07:04:40.605Z,31.72
2022-08-08T07:06:54.583Z,32.72
2022-08-08T07:09:27.123Z,32.75
2022-08-08T07:12:09.029Z,33.59
2022-08-08T07:14:58.104Z,32.10
2022-08-08T07:17:56.524Z,33.22
2022-08-08T07:20:21.250Z,34.21
2022-08-08T07:23:04.543Z,36.29
2022-08-08T07:25:38.762Z,35.95
2022-08-08T07:28:18.822Z,37.73
2022-08-08T07:30:47.051Z,36.89
2022-08-08T07:33:17.346Z,30.06
2022-08-08T07:35:48.468Z,32.56
2022-08-08T07:38:18.319Z,33.31
2022-08-08T07:40:49.070Z,35.06
2022-08-08T07:43:23.150Z,34.78
2022-08-08T07:46:18.396Z,36.02
2022-08-08T07:48:49.186Z,30.61
2022-08-08T07:51:24.319Z,34.27
2022-08-08T07:54:24.023Z,35.24
2022-08-08T07:57:17.064Z,35.33
2022-08-08T08:00:13.216Z,34.13
2022-08-08T08:03:11.132Z,29.09
2022-08-08T08:05:43.427Z,32.40
2022-08-08T08:08:20.528Z,35.76
2022-08-08T08:10:51.718Z,33.77
2022-08-08T08:13:25.424Z,30.34
2022-08-08T08:16:12.040Z,34.02
2022-08-08T08:18:55.882Z,34.01
2022-08-08T08:21:43.949Z,32.93
2022-08-08T08:24:15.641Z,33.50
2022-08-08T08:26:52.453Z,32.54
2022-08-08T08:29:19.649Z,30.53
2022-08-08T08:31:53.970Z,29.31
2022-08-08T08:34:24.297Z,28.02
2022-08-08T08:36:58.802Z,30.73
2022-08-08T08:39:59.586Z,29.38
2022-08-08T08:42:14.701Z,27.03
2022-08-08T08:44:46.689Z,32.10
2022-08-08T08:47:18.614Z,28.92
2022-08-08T08:49:48.519Z,29.30
2022-08-08T08:52:17.834Z,29.02
2022-08-08T08:54:48.894Z,32.56
2022-08-08T08:57:23.602Z,31.95
2022-08-08T09:00:00.258Z,33.09
2022-08-08T09:02:34.420Z,30.05
2022-08-08T09:05:05.047Z,32.70
2022-08-08T09:07:39.216Z,31.69
2022-08-08T09:10:23.140Z,32.40
2022-08-08T09:12:56.655Z,33.31
2022-08-08T09:15:41.072Z,30.32
2022-08-08T09:18:09.506Z,31.01
2022-08-08T09:22:01.009Z,33.92
2022-08-08T09:23:33.701Z,36.99
2022-08-08T09:26:18.817Z,32.07
2022-08-08T09:28:50.202Z,30.19
2022-08-08T09:31:42.234Z,32.42
2022-08-08T09:34:31.285Z,28.29
2022-08-08T09:37:28.825Z,26.99
2022-08-08T09:40:11.315Z,31.10
2022-08-08T09:42:44.449Z,29.04
2022-08-08T09:45:55.388Z,28.04
2022-08-08T09:48:16.274Z,30.39
2022-08-08T09:50:50.741Z,30.63
2022-08-08T09:53:31.917Z,29.37
2022-08-08T09:56:22.843Z,28.39
2022-08-08T09:59:32.060Z,27.54
2022-08-08T10:01:59.490Z,29.34
2022-08-08T10:04:39.818Z,26.81
2022-08-08T10:07:17.052Z,27.58
2022-08-08T10:10:00.603Z,28.21
2022-08-08T10:12:53.382Z,30.39
2022-08-08T10:15:26.469Z,27.63
2022-08-08T10:18:10.096Z,28.13
2022-08-08T10:20:58.179Z,25.03
2022-08-08T10:23:50.800Z,31.17
2022-08-08T10:26:30.761Z,31.87
2022-08-08T10:29:20.868Z,33.39
2022-08-08T10:32:16.404Z,32.03
2022-08-08T10:35:00.315Z,27.12
2022-08-08T10:37:34.742Z,28.51
2022-08-08T10:40:17.009Z,29.65
2022-08-08T10:42:45.330Z,29.80
2022-08-08T10:45:16.102Z,26.11
2022-08-08T10:47:48.497Z,27.02
2022-08-08T10:50:20.433Z,28.87
2022-08-08T10:52:51.443Z,27.77
2022-08-08T10:55:39.413Z,28.37
2022-08-08T10:58:08.572Z,27.59
2022-08-08T11:00:48.836Z,27.94
2022-08-08T11:03:37.125Z,26.76
2022-08-08T11:06:12.368Z,25.90
2022-08-08T11:08:50.047Z,25.11
2022-08-08T11:11:59.863Z,23.81
2022-08-08T11:14:12.402Z,24.17
2022-08-08T11:16:46.696Z,25.47
2022-08-08T11:19:15.747Z,23.51
2022-08-08T11:21:55.549Z,24.49
2022-08-08T11:24:26.215Z,24.25
2022-08-08T11:26:57.665Z,23.84
2022-08-08T11:29:41.596Z,24.29
2022-08-08T11:32:15.417Z,24.70
2022-08-08T11:35:23.554Z,24.07
2022-08-08T11:38:39.584Z,24.66
2022-08-08T11:40:27.297Z,25.07
2022-08-08T11:43:00.601Z,25.85
2022-08-08T11:45:28.116Z,25.24
2022-08-08T11:48:04.644Z,25.27
2022-08-08T11:50:34.060Z,25.03
2022-08-08T11:53:05.834Z,24.71
2022-08-08T11:55:36.410Z,25.48
2022-08-08T11:58:14.375Z,25.42
2022-08-08T12:00:55.297Z,25.05
2022-08-08T12:03:25.524Z,24.42
2022-08-08T12:05:57.774Z,24.06
2022-08-08T12:08:36.573Z,23.69
2022-08-08T12:11:23.294Z,24.65
2022-08-08T12:14:04.641Z,23.13
2022-08-08T12:16:39.558Z,23.02
2022-08-08T12:19:13.505Z,24.02
2022-08-08T12:21:59.353Z,24.35
2022-08-08T12:24:28.175Z,24.33
2022-08-08T12:26:56.991Z,24.00
2022-08-08T12:29:42.007Z,24.35
2022-08-08T12:32:19.958Z,25.10
2022-08-08T12:35:01.376Z,24.63
2022-08-08T12:37:41.206Z,24.85
2022-08-08T12:40:22.868Z,25.33
2022-08-08T12:42:52.069Z,24.72
2022-08-08T12:45:54.127Z,25.61
2022-08-08T12:48:37.403Z,26.21
2022-08-08T12:51:07.812Z,25.66
2022-08-08T12:53:58.997Z,24.59
2022-08-08T12:56:33.913Z,25.14
2022-08-08T12:59:01.101Z,25.74
2022-08-08T13:01:38.069Z,25.85
2022-08-08T13:04:18.515Z,25.41
2022-08-08T13:07:17.019Z,25.43
2022-08-08T13:10:04.526Z,25.98
2022-08-08T13:12:35.997Z,25.36
2022-08-08T13:15:09.692Z,25.44
2022-08-08T13:18:07.554Z,26.28
2022-08-08T13:20:27.110Z,25.63
2022-08-08T13:23:31.135Z,26.28
2022-08-08T13:25:43.642Z,26.46
2022-08-08T13:28:17.510Z,25.69
2022-08-08T13:30:45.471Z,25.34
2022-08-08T13:33:18.370Z,24.49
2022-08-08T13:35:50.752Z,25.30
2022-08-08T13:38:18.140Z,25.28
2022-08-08T13:40:46.102Z,24.52
2022-08-08T13:43:16.705Z,24.15
2022-08-08T13:45:47.207Z,24.83
2022-08-08T13:48:25.868Z,25.14
2022-08-08T13:50:57.590Z,25.78
2022-08-08T13:53:31.453Z,25.29
2022-08-08T13:56:02.349Z,25.81
2022-08-08T13:58:30.081Z,26.14
2022-08-08T14:00:57.223Z,25.43
2022-08-08T14:03:53.614Z,25.65
2022-08-08T14:06:32.380Z,26.16
2022-08-08T14:09:25.253Z,25.37
2022-08-08T14:11:48.811Z,26.47
2022-08-08T14:14:20.520Z,26.64
2022-08-08T14:16:52.394Z,26.99
2022-08-08T14:19:28.018Z,25.55
2022-08-08T14:22:22.401Z,26.39
2022-08-08T14:25:15.339Z,25.70
2022-08-08T14:27:59.451Z,25.40
2022-08-08T14:30:34.392Z,26.57
2022-08-08T14:33:01.408Z,25.95
2022-08-08T14:35:36.111Z,25.97
2022-08-08T14:38:33.607Z,26.53
2022-08-08T14:40:59.294Z,26.79
2022-08-08T14:44:02.204Z,26.06
2022-08-08T14:46:17.238Z,25.09
2022-08-08T14:48:57.287Z,25.29
2022-08-08T14:51:47.190Z,25.18
2022-08-08T14:54:13.914Z,25.86
2022-08-08T14:56:42.946Z,25.55
2022-08-08T14:59:21.303Z,25.69
2022-08-08T15:01:58.723Z,26.22
2022-08-08T15:04:26.472Z,25.25
2022-08-08T15:06:53.510Z,26.35
2022-08-08T15:09:21.786Z,26.84
2022-08-08T15:11:53.053Z,26.94
2022-08-08T15:14:26.460Z,26.78
2022-08-08T15:16:55.029Z,26.79
2022-08-08T15:19:23.933Z,26.71
2022-08-08T15:21:55.171Z,25.22
2022-08-08T15:24:24.520Z,25.38
2022-08-08T15:26:58.750Z,25.43
2022-08-08T15:29:38.875Z,25.21
2022-08-08T15:32:20.645Z,25.76
2022-08-08T15:34:48.093Z,26.27
2022-08-08T15:37:14.842Z,26.40
2022-08-08T15:39:43.985Z,25.35
2022-08-08T15:42:31.471Z,25.66
2022-08-08T15:45:02.541Z,26.37
2022-08-08T15:47:31.450Z,25.08
2022-08-08T15:49:59.113Z,24.98
2022-08-08T15:52:25.995Z,25.35
2022-08-08T15:54:53.160Z,25.33
2022-08-08T15:57:21.165Z,25.26
2022-08-08T16:00:18.024Z,25.55
2022-08-08T16:02:35.575Z,26.22
2022-08-08T16:05:03.881Z,25.57
2022-08-08T16:07:39.592Z,25.48
2022-08-08T16:13:11.641Z,25.61
2022-08-08T16:13:32.448Z,25.65
2022-08-08T16:15:57.478Z,25.57
2022-08-08T16:18:26.689Z,25.44
2022-08-08T16:20:53.413Z,25.15
2022-08-08T16:23:26.943Z,25.39
2022-08-08T16:25:54.527Z,25.77
2022-08-08T16:28:35.938Z,25.41
2022-08-08T16:31:07.678Z,24.44
2022-08-08T16:33:38.489Z,24.89
2022-08-08T16:36:09.137Z,24.81
2022-08-08T16:38:44.498Z,25.21
2022-08-08T16:41:20.096Z,25.27
2022-08-08T16:43:50.664Z,24.81
2022-08-08T16:46:43.448Z,24.96
2022-08-08T16:49:08.003Z,25.05
2022-08-08T16:55:03.840Z,24.39
2022-08-08T16:55:06.675Z,24.76
2022-08-08T16:57:23.514Z,24.97
2022-08-08T17:00:06.540Z,24.79
2022-08-08T17:02:39.684Z,24.86
2022-08-08T17:05:08.419Z,24.80
2022-08-08T17:07:37.819Z,24.20
2022-08-08T17:10:08.946Z,24.61
2022-08-08T17:12:36.693Z,24.62
2022-08-08T17:15:17.463Z,24.67
2022-08-08T17:18:02.772Z,24.75
2022-08-08T17:20:32.065Z,24.62
2022-08-08T17:23:18.270Z,24.26
2022-08-08T17:25:52.226Z,24.64
2022-08-08T17:28:34.349Z,24.62
2022-08-08T17:31:39.335Z,24.17
2022-08-08T17:34:49.090Z,24.33
2022-08-08T17:37:00.172Z,24.23
2022-08-08T17:40:04.163Z,24.19
2022-08-08T17:42:12.490Z,24.08
2022-08-08T17:44:39.928Z,23.82
2022-08-08T17:47:16.316Z,23.24
2022-08-08T17:49:52.868Z,23.45
2022-08-08T17:52:23.240Z,23.43
2022-08-08T17:54:51.903Z,23.32
2022-08-08T17:57:23.127Z,23.30
2022-08-08T17:59:51.669Z,23.29
2022-08-08T18:02:28.432Z,23.19
2022-08-08T18:04:58.393Z,23.02
2022-08-08T18:08:02.454Z,22.89
2022-08-08T18:10:16.526Z,22.78
2022-08-08T18:12:45.933Z,22.74
2022-08-08T18:15:13.243Z,22.71
2022-08-08T18:18:04.935Z,22.55
2022-08-08T18:20:43.080Z,22.58
2022-08-08T18:23:14.804Z,22.53
2022-08-08T18:25:43.489Z,22.33
2022-08-08T18:28:13.493Z,22.34
2022-08-08T18:30:42.640Z,22.33
2022-08-08T18:33:36.697Z,22.29
2022-08-08T18:36:03.198Z,22.10
2022-08-08T18:38:32.344Z,22.12
2022-08-08T18:41:03.094Z,22.05
2022-08-08T18:43:43.143Z,22.04
2022-08-08T18:46:54.105Z,21.94
2022-08-08T18:48:58.852Z,21.85
2022-08-08T18:51:53.167Z,21.54
2022-08-08T18:54:22.679Z,21.54
2022-08-08T18:56:57.113Z,21.50
2022-08-08T18:59:23.960Z,21.20
2022-08-08T19:02:25.390Z,21.20
2022-08-08T19:04:38.037Z,21.04
2022-08-08T19:07:05.117Z,20.70
2022-08-08T19:09:49.552Z,20.49
2022-08-08T19:12:19.334Z,20.43
2022-08-08T19:14:53.162Z,20.41
2022-08-08T19:17:28.719Z,20.40
2022-08-08T19:20:02.273Z,20.23
2022-08-08T19:22:29.996Z,20.26
2022-08-08T19:25:05.091Z,20.17
2022-08-08T19:27:55.747Z,19.98
2022-08-08T19:30:26.485Z,19.94
2022-08-08T19:32:54.000Z,19.87
2022-08-08T19:35:25.487Z,19.76
2022-08-08T19:38:11.131Z,19.63
2022-08-08T19:40:37.874Z,19.59
2022-08-08T19:43:11.769Z,19.49
2022-08-08T19:45:58.539Z,19.45
2022-08-08T19:48:29.068Z,19.39
2022-08-08T19:50:59.449Z,19.28
2022-08-08T19:53:51.698Z,19.07
2022-08-08T19:56:16.422Z,18.91
2022-08-08T19:58:52.878Z,18.79
2022-08-08T20:01:31.593Z,18.76
2022-08-08T20:04:08.624Z,18.69
2022-08-08T20:06:35.862Z,18.67
2022-08-08T20:09:04.607Z,18.58
2022-08-08T20:11:43.203Z,18.46
2022-08-08T20:14:32.312Z,18.43
2022-08-08T20:16:57.664Z,18.22
2022-08-08T20:19:34.822Z,18.28
2022-08-08T20:22:20.600Z,18.16
2022-08-08T20:24:53.610Z,18.12
2022-08-08T20:27:43.825Z,17.99
2022-08-08T20:30:10.745Z,17.76
2022-08-08T20:32:57.413Z,17.77
2022-08-08T20:35:57.170Z,17.74
2022-08-08T20:38:12.132Z,17.69
2022-08-08T20:40:40.933Z,17.68
2022-08-08T20:43:16.207Z,17.61
2022-08-08T20:45:57.399Z,17.56
2022-08-08T20:48:26.237Z,17.39
2022-08-08T20:50:55.865Z,17.38
2022-08-08T20:53:58.102Z,17.38
2022-08-08T20:56:09.624Z,17.41
2022-08-08T20:58:38.677Z,17.24
2022-08-08T21:01:10.936Z,17.19
2022-08-08T21:03:56.076Z,17.24
2022-08-08T21:06:52.613Z,17.16
2022-08-08T21:09:16.128Z,17.13
2022-08-08T21:11:52.169Z,17.05
2022-08-08T21:14:33.668Z,16.96
2022-08-08T21:17:06.278Z,16.82
2022-08-08T21:19:45.883Z,16.89
2022-08-08T21:22:15.482Z,16.80
2022-08-08T21:24:53.573Z,16.77
2022-08-08T21:27:38.727Z,16.80
2022-08-08T21:30:19.411Z,16.68
2022-08-08T21:32:52.272Z,16.54
2022-08-08T21:36:13.930Z,16.54
2022-08-08T21:38:18.081Z,16.55
2022-08-08T21:40:54.764Z,16.38
2022-08-08T21:43:33.200Z,16.45
2022-08-08T21:48:02.441Z,16.37
2022-08-08T21:48:53.571Z,16.37
2022-08-08T21:54:31.284Z,16.29
2022-08-08T21:54:32.000Z,16.25
2022-08-08T21:56:59.426Z,16.20
2022-08-08T21:59:28.513Z,16.20
2022-08-08T22:02:15.812Z,16.01
2022-08-08T22:04:42.880Z,16.08
2022-08-08T22:07:09.678Z,16.11
2022-08-08T22:09:43.602Z,16.04
2022-08-08T22:12:14.978Z,15.96
2022-08-08T22:14:49.813Z,15.90
2022-08-08T22:17:18.361Z,15.88
2022-08-08T22:20:10.914Z,15.77
2022-08-08T22:22:37.883Z,15.79
2022-08-08T22:25:17.705Z,15.78
2022-08-08T22:28:04.352Z,15.73
2022-08-08T22:30:42.434Z,15.69
2022-08-08T22:33:21.974Z,15.41
2022-08-08T22:36:04.612Z,15.49
2022-08-08T22:38:48.131Z,15.43
2022-08-08T22:41:21.763Z,15.28
2022-08-08T22:44:05.566Z,15.33
2022-08-08T22:46:34.554Z,15.34
2022-08-08T22:49:06.990Z,15.16
2022-08-08T22:51:42.769Z,15.12
2022-08-08T22:54:31.343Z,15.08
2022-08-08T22:57:00.372Z,15.13
2022-08-08T22:59:27.187Z,15.04
2022-08-08T23:02:12.570Z,15.03
2022-08-08T23:04:55.821Z,14.88
2022-08-08T23:07:51.430Z,14.83
2022-08-08T23:10:13.858Z,14.73
2022-08-08T23:12:48.928Z,14.81
2022-08-08T23:16:41.494Z,14.65
2022-08-08T23:18:12.083Z,14.54
2022-08-08T23:20:41.117Z,14.56
2022-08-08T23:23:10.507Z,14.47
2022-08-08T23:25:48.162Z,14.49
2022-08-08T23:28:17.653Z,14.56
2022-08-08T23:30:46.146Z,14.31
2022-08-08T23:33:18.916Z,14.33
2022-08-08T23:36:06.994Z,14.28
2022-08-08T23:38:33.261Z,14.31
2022-08-08T23:40:59.946Z,14.30
2022-08-08T23:43:31.691Z,14.30
2022-08-08T23:49:03.603Z,14.31
2022-08-08T23:49:15.245Z,14.32
2022-08-08T23:52:06.596Z,14.31
2022-08-08T23:54:43.007Z,14.11
2022-08-08T23:57:27.795Z,14.21
